createdAt,value
2023-03-29T00:01:37.045Z,67.89
2023-03-29T00:04:41.316Z,68.36
2023-03-29T00:07:44.100Z,69.84
2023-03-29T00:10:48.890Z,69.95
2023-03-29T00:13:51.481Z,70.42
2023-03-29T00:16:54.257Z,70.61
2023-03-29T00:19:56.834Z,70.11
2023-03-29T00:22:59.784Z,69.78
2023-03-29T00:26:02.506Z,69.65
2023-03-29T00:29:05.432Z,69.70
2023-03-29T00:32:08.325Z,70.13
2023-03-29T00:35:11.128Z,70.35
2023-03-29T00:38:14.491Z,70.31
2023-03-29T00:41:17.730Z,70.71
2023-03-29T00:44:58.136Z,70.77
2023-03-29T00:48:03.624Z,70.63
2023-03-29T00:51:10.048Z,71.14
2023-03-29T00:54:15.164Z,71.57
2023-03-29T00:57:19.126Z,71.64
2023-03-29T01:00:24.727Z,71.63
2023-03-29T01:03:33.056Z,71.92
2023-03-29T01:06:37.562Z,71.99
2023-03-29T01:09:43.041Z,72.04
2023-03-29T01:12:50.490Z,72.61
2023-03-29T01:15:54.368Z,72.30
2023-03-29T01:19:00.421Z,72.52
2023-03-29T01:22:26.109Z,71.91
2023-03-29T01:25:39.623Z,72.77
2023-03-29T01:28:49.705Z,73.01
2023-03-29T01:32:19.426Z,75.22
2023-03-29T01:35:36.377Z,74.02
2023-03-29T01:38:51.765Z,74.20
2023-03-29T01:42:20.412Z,75.21
2023-03-29T01:45:29.298Z,75.37
2023-03-29T01:48:37.754Z,75.59
2023-03-29T01:51:43.906Z,75.34
2023-03-29T01:55:03.597Z,75.57
2023-03-29T01:58:08.583Z,75.35
2023-03-29T02:01:17.693Z,75.51
2023-03-29T02:04:25.645Z,75.06
2023-03-29T02:07:30.814Z,75.45
2023-03-29T02:10:34.393Z,75.11
2023-03-29T02:13:38.955Z,75.89
2023-03-29T02:16:42.028Z,77.47
2023-03-29T02:19:50.187Z,75.52
2023-03-29T02:23:02.353Z,75.85
2023-03-29T02:26:06.791Z,76.33
2023-03-29T02:29:09.913Z,77.06
2023-03-29T02:32:27.463Z,77.26
2023-03-29T02:35:36.986Z,77.33
2023-03-29T02:38:40.269Z,77.37
2023-03-29T02:41:44.613Z,77.40
2023-03-29T02:44:51.119Z,77.49
2023-03-29T02:47:55.755Z,77.54
2023-03-29T02:51:01.621Z,77.31
2023-03-29T02:54:21.938Z,77.15
2023-03-29T02:57:28.757Z,78.30
2023-03-29T03:00:31.290Z,77.17
2023-03-29T03:03:35.768Z,79.01
2023-03-29T03:06:38.894Z,77.33
2023-03-29T03:09:41.826Z,79.23
2023-03-29T03:12:44.796Z,78.41
2023-03-29T03:15:49.452Z,78.58
2023-03-29T03:18:52.534Z,78.85
2023-03-29T03:21:56.111Z,78.60
2023-03-29T03:24:58.551Z,78.64
2023-03-29T03:28:02.473Z,79.36
2023-03-29T03:31:05.750Z,79.04
2023-03-29T03:34:11.242Z,79.03
2023-03-29T03:37:16.033Z,78.75
2023-03-29T03:40:18.961Z,78.78
2023-03-29T03:43:22.322Z,78.66
2023-03-29T03:46:26.275Z,78.83
2023-03-29T03:49:30.279Z,78.83
2023-03-29T03:52:33.289Z,78.87
2023-03-29T03:55:36.078Z,79.03
2023-03-29T03:58:39.711Z,79.13
2023-03-29T04:01:43.870Z,79.03
2023-03-29T04:04:47.718Z,79.50
2023-03-29T04:07:50.391Z,79.22
2023-03-29T04:10:55.540Z,79.05
2023-03-29T04:13:58.627Z,79.37
2023-03-29T04:17:01.990Z,80.58
2023-03-29T04:20:12.883Z,79.62
2023-03-29T04:23:16.285Z,79.18
2023-03-29T04:26:19.528Z,79.08
2023-03-29T04:29:22.682Z,79.16
2023-03-29T04:32:25.687Z,79.26
2023-03-29T04:35:29.424Z,79.44
2023-03-29T04:38:36.134Z,79.76
2023-03-29T04:41:39.196Z,80.19
2023-03-29T04:44:43.641Z,80.50
2023-03-29T04:47:48.284Z,81.12
2023-03-29T04:50:51.543Z,80.80
2023-03-29T04:53:55.380Z,80.35
2023-03-29T04:56:58.002Z,80.46
2023-03-29T05:00:08.386Z,80.36
2023-03-29T05:03:14.550Z,80.47
2023-03-29T05:06:18.086Z,81.76
2023-03-29T05:09:21.121Z,80.20
2023-03-29T05:12:24.141Z,79.87
2023-03-29T05:15:27.212Z,79.15
2023-03-29T05:18:31.109Z,77.83
2023-03-29T05:21:34.379Z,77.25
2023-03-29T05:24:37.807Z,76.09
2023-03-29T05:27:41.146Z,75.46
2023-03-29T05:30:44.718Z,75.75
2023-03-29T05:33:48.533Z,75.53
2023-03-29T05:36:51.907Z,75.31
2023-03-29T05:39:55.071Z,76.07
2023-03-29T05:43:09.650Z,75.67
2023-03-29T05:46:12.827Z,75.75
2023-03-29T05:49:16.971Z,76.27
2023-03-29T05:52:22.291Z,76.56
2023-03-29T05:55:25.261Z,77.74
2023-03-29T05:58:28.678Z,77.19
2023-03-29T06:01:32.385Z,77.29
2023-03-29T06:04:36.664Z,77.02
2023-03-29T06:07:40.839Z,77.46
2023-03-29T06:10:45.477Z,77.62
2023-03-29T06:13:48.928Z,77.20
2023-03-29T06:16:52.030Z,76.76
2023-03-29T06:19:54.950Z,76.86
2023-03-29T06:22:58.988Z,77.13
2023-03-29T06:26:02.421Z,76.69
2023-03-29T06:29:05.690Z,76.17
2023-03-29T06:32:08.642Z,75.01
2023-03-29T06:35:13.570Z,73.58
2023-03-29T06:38:16.738Z,71.66
2023-03-29T06:41:21.514Z,72.09
2023-03-29T06:44:25.607Z,71.41
2023-03-29T06:47:31.635Z,70.61
2023-03-29T06:50:35.177Z,69.90
2023-03-29T06:53:38.551Z,68.79
2023-03-29T06:56:42.512Z,67.95
2023-03-29T06:59:47.804Z,68.43
2023-03-29T07:02:51.173Z,66.40
2023-03-29T07:06:01.572Z,65.19
2023-03-29T07:09:06.853Z,63.25
2023-03-29T07:12:10.765Z,62.04
2023-03-29T07:15:16.228Z,62.47
2023-03-29T07:18:22.046Z,60.40
2023-03-29T07:21:24.920Z,60.71
2023-03-29T07:24:28.624Z,58.17
2023-03-29T07:27:32.742Z,53.88
2023-03-29T07:30:37.190Z,52.97
2023-03-29T07:33:42.799Z,52.91
2023-03-29T07:36:45.960Z,52.50
2023-03-29T07:39:48.653Z,51.69
2023-03-29T07:42:54.331Z,52.69
2023-03-29T07:46:01.722Z,52.58
2023-03-29T07:49:05.670Z,50.36
2023-03-29T07:52:09.193Z,49.58
2023-03-29T07:55:13.384Z,50.03
2023-03-29T07:58:19.324Z,49.48
2023-03-29T08:01:22.461Z,49.07
2023-03-29T08:04:28.922Z,47.91
2023-03-29T08:07:44.170Z,43.57
2023-03-29T08:10:48.381Z,42.20
2023-03-29T08:13:51.688Z,41.14
2023-03-29T08:16:56.008Z,42.37
2023-03-29T08:19:58.692Z,42.43
2023-03-29T08:23:01.869Z,39.53
2023-03-29T08:26:04.974Z,38.89
2023-03-29T08:29:09.142Z,38.20
2023-03-29T08:32:12.158Z,35.03
2023-03-29T08:35:15.377Z,33.32
2023-03-29T08:38:19.063Z,35.58
2023-03-29T08:41:46.170Z,35.47
2023-03-29T08:45:04.154Z,35.00
2023-03-29T08:48:10.134Z,31.93
2023-03-29T08:51:37.363Z,31.77
2023-03-29T08:54:43.994Z,31.81
2023-03-29T08:57:56.003Z,31.05
2023-03-29T09:01:05.138Z,31.57
2023-03-29T09:04:17.454Z,30.91
2023-03-29T09:07:21.127Z,33.34
2023-03-29T09:10:39.273Z,33.43
2023-03-29T09:14:08.607Z,33.41
2023-03-29T09:17:48.329Z,34.74
2023-03-29T09:21:38.180Z,35.45
2023-03-29T09:24:59.149Z,35.10
2023-03-29T09:28:10.757Z,34.33
2023-03-29T09:31:21.601Z,34.54
2023-03-29T09:34:42.162Z,34.34
2023-03-29T09:37:46.809Z,34.91
2023-03-29T09:40:59.389Z,34.59
2023-03-29T09:44:10.895Z,34.00
2023-03-29T09:47:40.916Z,32.19
2023-03-29T09:50:47.264Z,32.79
2023-03-29T09:53:50.637Z,32.64
2023-03-29T09:56:55.584Z,33.82
2023-03-29T09:59:59.848Z,33.94
2023-03-29T10:03:04.637Z,34.16
2023-03-29T10:06:11.961Z,33.35
2023-03-29T10:09:23.335Z,33.76
2023-03-29T10:12:26.732Z,34.66
2023-03-29T10:15:30.663Z,33.73
2023-03-29T10:18:39.864Z,34.30
2023-03-29T10:21:42.402Z,34.06
2023-03-29T10:24:51.389Z,34.80
2023-03-29T10:27:56.290Z,34.24
2023-03-29T10:31:01.266Z,33.68
2023-03-29T10:34:05.452Z,33.61
2023-03-29T10:37:09.289Z,33.56
2023-03-29T10:40:29.551Z,33.29
2023-03-29T10:43:43.692Z,32.83
2023-03-29T10:46:46.545Z,34.44
2023-03-29T10:49:56.965Z,33.50
2023-03-29T10:53:01.743Z,33.40
2023-03-29T10:56:13.931Z,33.22
2023-03-29T10:59:24.842Z,33.54
2023-03-29T11:02:45.011Z,34.02
2023-03-29T11:05:48.998Z,33.17
2023-03-29T11:09:00.102Z,33.96
2023-03-29T11:12:26.972Z,32.53
2023-03-29T11:15:48.396Z,33.04
2023-03-29T11:19:06.800Z,32.86
2023-03-29T11:22:27.929Z,33.01
2023-03-29T11:25:33.564Z,32.58
2023-03-29T11:29:04.589Z,33.10
2023-03-29T11:32:33.578Z,33.61
2023-03-29T11:35:48.142Z,32.28
2023-03-29T11:39:20.353Z,32.99
2023-03-29T11:42:32.241Z,32.82
2023-03-29T11:45:39.962Z,31.87
2023-03-29T11:49:07.816Z,32.73
2023-03-29T11:52:30.923Z,32.65
2023-03-29T11:55:36.138Z,33.92
2023-03-29T11:58:42.568Z,33.03
2023-03-29T12:01:57.392Z,34.73
2023-03-29T12:05:07.556Z,34.69
2023-03-29T12:08:22.312Z,34.22
2023-03-29T12:11:38.053Z,35.38
2023-03-29T12:15:01.578Z,36.01
2023-03-29T12:18:14.536Z,36.10
2023-03-29T12:21:22.955Z,37.11
2023-03-29T12:24:30.277Z,36.75
2023-03-29T12:27:46.969Z,38.83
2023-03-29T12:30:53.243Z,39.98
2023-03-29T12:34:14.622Z,40.60
2023-03-29T12:37:32.058Z,40.63
2023-03-29T12:40:42.868Z,40.85
2023-03-29T12:43:54.050Z,41.36
2023-03-29T12:47:00.514Z,42.89
2023-03-29T12:50:04.738Z,42.95
2023-03-29T12:53:46.619Z,43.05
2023-03-29T12:56:52.329Z,44.94
2023-03-29T12:59:55.145Z,44.59
2023-03-29T13:03:06.524Z,44.81
2023-03-29T13:06:11.159Z,45.66
2023-03-29T13:09:23.765Z,46.52
2023-03-29T13:12:37.474Z,46.76
2023-03-29T13:15:40.679Z,47.22
2023-03-29T13:18:56.728Z,50.52
2023-03-29T13:22:40.040Z,48.49
2023-03-29T13:25:57.885Z,48.33
2023-03-29T13:29:16.294Z,47.75
2023-03-29T13:32:27.967Z,49.65
2023-03-29T13:35:45.478Z,49.07
2023-03-29T13:38:53.755Z,50.40
2023-03-29T13:42:35.500Z,50.33
2023-03-29T13:45:39.026Z,49.99
2023-03-29T13:48:41.740Z,52.79
2023-03-29T13:51:53.593Z,53.61
2023-03-29T13:55:02.420Z,53.00
2023-03-29T13:58:21.083Z,53.11
2023-03-29T14:01:28.592Z,53.22
2023-03-29T14:04:37.836Z,52.63
2023-03-29T14:07:45.234Z,52.98
2023-03-29T14:10:48.564Z,52.76
2023-03-29T14:13:59.208Z,53.68
2023-03-29T14:17:02.286Z,53.42
2023-03-29T14:20:09.301Z,54.33
2023-03-29T14:23:18.186Z,54.65
2023-03-29T14:26:22.873Z,53.52
2023-03-29T14:29:31.230Z,53.83
2023-03-29T14:32:34.029Z,55.10
2023-03-29T14:35:38.010Z,53.40
2023-03-29T14:38:40.778Z,56.01
2023-03-29T14:41:52.958Z,56.56
2023-03-29T14:45:06.562Z,56.86
2023-03-29T14:48:12.708Z,58.31
2023-03-29T14:51:15.644Z,57.89
2023-03-29T14:54:24.266Z,58.83
2023-03-29T14:57:31.741Z,57.28
2023-03-29T15:00:41.596Z,57.92
2023-03-29T15:03:50.782Z,58.44
2023-03-29T15:06:55.157Z,60.10
2023-03-29T15:09:58.733Z,60.76
2023-03-29T15:13:07.339Z,60.81
2023-03-29T15:16:14.069Z,61.16
2023-03-29T15:19:19.160Z,61.89
2023-03-29T15:22:21.804Z,61.80
2023-03-29T15:25:28.471Z,62.87
2023-03-29T15:28:36.035Z,65.13
2023-03-29T15:31:41.924Z,69.23
2023-03-29T15:34:44.686Z,71.09
2023-03-29T15:37:47.571Z,72.58
2023-03-29T15:40:50.427Z,73.99
2023-03-29T15:43:56.255Z,75.18
2023-03-29T15:46:59.886Z,76.73
2023-03-29T15:50:02.999Z,75.62
2023-03-29T15:53:14.802Z,76.45
2023-03-29T15:56:20.484Z,75.99
2023-03-29T15:59:23.381Z,77.94
2023-03-29T16:02:26.684Z,77.35
2023-03-29T16:05:30.039Z,75.37
2023-03-29T16:08:32.801Z,75.77
2023-03-29T16:11:36.455Z,74.98
2023-03-29T16:14:39.049Z,74.88
2023-03-29T16:17:41.799Z,74.34
2023-03-29T16:20:44.469Z,73.27
2023-03-29T16:23:47.434Z,72.79
2023-03-29T16:26:51.733Z,72.40
2023-03-29T16:29:56.233Z,71.46
2023-03-29T16:32:58.970Z,71.45
2023-03-29T16:36:01.842Z,71.20
2023-03-29T16:39:05.654Z,70.32
2023-03-29T16:42:10.364Z,70.04
2023-03-29T16:45:16.720Z,70.68
2023-03-29T16:48:19.867Z,69.48
2023-03-29T16:51:22.620Z,69.59
2023-03-29T16:54:26.643Z,69.51
2023-03-29T16:57:29.220Z,69.02
2023-03-29T17:00:33.196Z,68.91
2023-03-29T17:03:37.367Z,68.84
2023-03-29T17:06:40.981Z,68.98
2023-03-29T17:09:45.854Z,68.80
2023-03-29T17:12:48.648Z,68.34
2023-03-29T17:15:52.679Z,67.45
2023-03-29T17:18:56.432Z,67.89
2023-03-29T17:21:59.191Z,68.14
2023-03-29T17:25:03.826Z,68.69
2023-03-29T17:28:06.420Z,68.90
2023-03-29T17:31:09.355Z,69.16
2023-03-29T17:34:12.145Z,69.25
2023-03-29T17:37:14.919Z,69.78
2023-03-29T17:40:18.570Z,69.80
2023-03-29T17:43:21.709Z,69.62
2023-03-29T17:46:24.512Z,70.00
2023-03-29T17:49:27.859Z,70.13
2023-03-29T17:52:30.437Z,69.57
2023-03-29T17:55:33.415Z,69.59
2023-03-29T17:58:36.075Z,69.41
2023-03-29T18:01:39.498Z,69.47
2023-03-29T18:04:42.423Z,69.34
2023-03-29T18:07:45.038Z,69.31
2023-03-29T18:10:47.965Z,69.33
2023-03-29T18:13:51.557Z,70.14
2023-03-29T18:16:54.387Z,69.94
2023-03-29T18:19:57.480Z,70.14
2023-03-29T18:23:00.412Z,70.45
2023-03-29T18:26:04.636Z,70.78
2023-03-29T18:29:09.712Z,70.63
2023-03-29T18:32:12.788Z,71.21
2023-03-29T18:35:15.934Z,70.55
2023-03-29T18:38:20.252Z,70.71
2023-03-29T18:41:23.818Z,70.80
2023-03-29T18:44:27.394Z,71.22
2023-03-29T18:47:30.617Z,72.21
2023-03-29T18:50:34.412Z,71.97
2023-03-29T18:53:38.900Z,72.09
2023-03-29T18:56:41.782Z,71.89
2023-03-29T18:59:44.948Z,71.96
2023-03-29T19:02:47.988Z,72.25
2023-03-29T19:05:55.317Z,72.59
2023-03-29T19:09:01.977Z,72.59
2023-03-29T19:12:05.367Z,72.27
2023-03-29T19:15:08.920Z,72.51
2023-03-29T19:18:11.932Z,72.54
2023-03-29T19:21:14.815Z,73.06
2023-03-29T19:24:18.019Z,73.20
2023-03-29T19:27:21.280Z,73.63
2023-03-29T19:30:25.833Z,73.42
2023-03-29T19:33:29.537Z,74.00
2023-03-29T19:36:34.077Z,73.43
2023-03-29T19:39:37.100Z,73.60
2023-03-29T19:42:43.531Z,73.36
2023-03-29T19:45:47.596Z,73.47
2023-03-29T19:48:54.850Z,73.39
2023-03-29T19:51:58.218Z,73.69
2023-03-29T19:55:02.151Z,73.75
2023-03-29T19:58:05.131Z,73.80
2023-03-29T20:01:08.231Z,73.89
2023-03-29T20:04:11.814Z,74.21
2023-03-29T20:07:14.555Z,73.67
2023-03-29T20:10:17.353Z,73.51
2023-03-29T20:13:31.453Z,73.64
2023-03-29T20:16:41.755Z,74.24
2023-03-29T20:19:44.339Z,73.42
2023-03-29T20:22:48.188Z,73.17
2023-03-29T20:25:50.775Z,73.12
2023-03-29T20:28:53.603Z,72.69
2023-03-29T20:31:56.694Z,72.45
2023-03-29T20:34:59.606Z,72.28
2023-03-29T20:38:02.584Z,72.30
2023-03-29T20:41:05.983Z,72.43
2023-03-29T20:44:08.833Z,72.29
2023-03-29T20:47:14.121Z,72.12
2023-03-29T20:50:18.930Z,71.88
2023-03-29T20:53:21.755Z,71.71
2023-03-29T20:56:26.147Z,71.81
2023-03-29T20:59:29.775Z,71.62
2023-03-29T21:02:32.527Z,71.75
2023-03-29T21:05:35.736Z,72.12
2023-03-29T21:08:38.750Z,73.86
2023-03-29T21:11:41.617Z,74.56
2023-03-29T21:14:44.977Z,74.83
2023-03-29T21:17:48.156Z,75.66
2023-03-29T21:20:50.777Z,77.34
2023-03-29T21:23:53.524Z,76.84
2023-03-29T21:26:56.074Z,77.39
2023-03-29T21:29:58.887Z,78.22
2023-03-29T21:33:01.536Z,79.03
2023-03-29T21:36:05.013Z,79.31
2023-03-29T21:39:08.027Z,78.73
2023-03-29T21:42:10.792Z,79.54
2023-03-29T21:45:13.542Z,79.26
2023-03-29T21:48:17.571Z,79.11
2023-03-29T21:51:20.244Z,79.01
2023-03-29T21:54:23.021Z,79.42
2023-03-29T21:57:25.652Z,80.08
2023-03-29T22:00:28.774Z,80.11
2023-03-29T22:03:31.829Z,79.81
2023-03-29T22:06:34.302Z,81.17
2023-03-29T22:09:37.397Z,81.30
2023-03-29T22:12:41.359Z,81.76
2023-03-29T22:15:44.135Z,81.99
2023-03-29T22:18:49.138Z,81.43
2023-03-29T22:21:51.934Z,81.56
2023-03-29T22:24:54.856Z,81.47
2023-03-29T22:27:57.630Z,83.13
2023-03-29T22:31:08.545Z,83.00
2023-03-29T22:34:11.567Z,82.88
2023-03-29T22:37:14.032Z,82.84
2023-03-29T22:40:18.028Z,82.96
2023-03-29T22:43:21.518Z,82.70
2023-03-29T22:46:26.357Z,82.22
2023-03-29T22:49:28.925Z,82.33
2023-03-29T22:52:31.752Z,82.46
2023-03-29T22:55:34.259Z,82.06
2023-03-29T22:58:37.615Z,81.55
2023-03-29T23:01:40.548Z,81.48
2023-03-29T23:04:45.570Z,81.37
2023-03-29T23:07:48.232Z,81.25
2023-03-29T23:10:52.171Z,81.19
2023-03-29T23:13:55.179Z,80.89
2023-03-29T23:16:58.258Z,80.89
2023-03-29T23:20:01.273Z,80.57
2023-03-29T23:23:05.837Z,80.27
2023-03-29T23:26:09.180Z,80.23
2023-03-29T23:29:12.169Z,80.04
2023-03-29T23:32:15.748Z,79.84
2023-03-29T23:35:19.456Z,79.72
2023-03-29T23:38:22.417Z,79.57
2023-03-29T23:41:28.337Z,79.65
2023-03-29T23:44:30.854Z,79.55
2023-03-29T23:47:34.446Z,79.76
2023-03-29T23:50:36.942Z,79.89
2023-03-29T23:53:39.732Z,79.67
2023-03-29T23:56:42.230Z,79.68
2023-03-29T23:59:45.022Z,79.57
